createdAt,value
2019-05-13T00:00:15.103Z,7.00
2019-05-13T00:02:43.986Z,6.90
2019-05-13T00:05:14.746Z,6.90
2019-05-13T00:07:43.917Z,6.80
2019-05-13T00:10:14.664Z,6.80
2019-05-13T00:12:44.664Z,6.70
2019-05-13T00:15:14.406Z,6.60
2019-05-13T00:17:44.734Z,6.60
2019-05-13T00:20:14.360Z,6.60
2019-05-13T00:22:44.600Z,6.50
2019-05-13T00:25:14.666Z,6.50
2019-05-13T00:27:44.432Z,6.40
2019-05-13T00:30:14.511Z,6.40
2019-05-13T00:32:44.593Z,6.40
2019-05-13T00:35:14.256Z,6.40
2019-05-13T00:37:44.406Z,6.40
2019-05-13T00:40:14.373Z,6.30
2019-05-13T00:42:44.272Z,6.20
2019-05-13T00:45:14.624Z,6.20
2019-05-13T00:47:43.983Z,6.10
2019-05-13T00:50:14.146Z,6.00
2019-05-13T00:52:44.942Z,5.90
2019-05-13T00:55:14.697Z,5.90
2019-05-13T00:57:43.955Z,5.90
2019-05-13T01:00:14.059Z,5.80
2019-05-13T01:02:44.715Z,5.70
2019-05-13T01:05:14.630Z,5.70
2019-05-13T01:07:44.383Z,5.60
2019-05-13T01:10:13.633Z,5.50
2019-05-13T01:12:44.134Z,5.50
2019-05-13T01:15:13.801Z,5.40
2019-05-13T01:17:44.700Z,5.50
2019-05-13T01:20:14.467Z,5.50
2019-05-13T01:22:44.055Z,5.50
2019-05-13T01:25:14.681Z,5.40
2019-05-13T01:27:44.278Z,5.40
2019-05-13T01:30:14.505Z,5.40
2019-05-13T01:32:44.873Z,5.40
2019-05-13T01:35:14.863Z,5.40
2019-05-13T01:37:46.096Z,5.30
2019-05-13T01:40:14.814Z,5.40
2019-05-13T01:42:44.402Z,5.40
2019-05-13T01:45:13.983Z,5.40
2019-05-13T01:47:43.973Z,5.40
2019-05-13T01:50:14.301Z,5.30
2019-05-13T01:52:44.608Z,5.30
2019-05-13T01:55:14.696Z,5.30
2019-05-13T01:57:44.254Z,5.30
2019-05-13T02:00:14.142Z,5.30
2019-05-13T02:02:44.419Z,5.30
2019-05-13T02:05:14.061Z,5.30
2019-05-13T02:07:56.530Z,5.30
2019-05-13T02:10:14.790Z,5.30
2019-05-13T02:12:44.527Z,5.30
2019-05-13T02:15:14.699Z,5.20
2019-05-13T02:17:44.722Z,5.20
2019-05-13T02:20:14.781Z,5.20
2019-05-13T02:22:44.456Z,5.20
2019-05-13T02:25:14.111Z,5.20
2019-05-13T02:27:43.892Z,5.20
2019-05-13T02:30:16.056Z,5.20
2019-05-13T02:32:43.375Z,5.20
2019-05-13T02:35:14.290Z,5.20
2019-05-13T02:37:43.799Z,5.30
2019-05-13T02:40:13.759Z,5.30
2019-05-13T02:42:43.675Z,5.20
2019-05-13T02:45:13.092Z,5.20
2019-05-13T02:47:44.346Z,5.10
2019-05-13T02:50:13.029Z,5.10
2019-05-13T02:52:44.468Z,5.10
2019-05-13T02:55:12.856Z,5.10
2019-05-13T02:57:43.769Z,5.10
2019-05-13T03:00:13.279Z,5.00
2019-05-13T03:02:43.910Z,5.00
2019-05-13T03:05:13.807Z,5.00
2019-05-13T03:07:43.182Z,4.90
2019-05-13T03:10:13.691Z,4.90
2019-05-13T03:12:43.022Z,4.90
2019-05-13T03:15:13.607Z,4.90
2019-05-13T03:17:53.680Z,4.90
2019-05-13T03:20:23.103Z,4.90
2019-05-13T03:22:52.833Z,5.00
2019-05-13T03:25:22.627Z,5.00
2019-05-13T03:27:54.110Z,5.00
2019-05-13T03:30:25.328Z,5.00
2019-05-13T03:33:00.344Z,5.00
2019-05-13T03:35:27.106Z,5.00
2019-05-13T03:37:53.572Z,5.10
2019-05-13T03:40:23.146Z,5.10
2019-05-13T03:42:53.757Z,5.00
2019-05-13T03:45:24.517Z,5.00
2019-05-13T03:47:54.885Z,5.10
2019-05-13T03:50:23.371Z,5.10
2019-05-13T03:52:52.521Z,5.10
2019-05-13T03:55:23.124Z,5.00
2019-05-13T03:57:53.331Z,5.10
2019-05-13T04:00:23.557Z,5.00
2019-05-13T04:02:53.255Z,5.00
2019-05-13T04:05:23.305Z,5.00
2019-05-13T04:07:52.706Z,4.90
2019-05-13T04:10:23.007Z,4.90
2019-05-13T04:12:52.842Z,5.00
2019-05-13T04:15:23.511Z,5.00
2019-05-13T04:17:53.434Z,5.00
2019-05-13T04:20:23.288Z,5.00
2019-05-13T04:22:53.357Z,5.00
2019-05-13T04:25:23.119Z,5.00
2019-05-13T04:27:53.493Z,5.00
2019-05-13T04:30:22.837Z,5.00
2019-05-13T04:32:53.418Z,5.00
2019-05-13T04:35:23.298Z,5.10
2019-05-13T04:37:52.889Z,5.10
2019-05-13T04:40:23.273Z,5.20
2019-05-13T04:42:53.558Z,5.30
2019-05-13T04:45:23.954Z,5.30
2019-05-13T04:47:53.093Z,5.40
2019-05-13T04:50:22.646Z,5.40
2019-05-13T04:52:52.889Z,5.40
2019-05-13T04:55:23.092Z,5.50
2019-05-13T04:57:53.182Z,5.60
2019-05-13T05:00:49.856Z,5.70
2019-05-13T05:03:22.885Z,5.80
2019-05-13T05:05:58.880Z,5.90
2019-05-13T05:08:47.606Z,5.90
2019-05-13T05:11:27.273Z,6.00
2019-05-13T05:14:17.088Z,6.10
2019-05-13T05:16:57.366Z,6.20
2019-05-13T05:19:52.234Z,6.20
2019-05-13T05:22:34.886Z,6.20
2019-05-13T05:25:22.109Z,6.20
2019-05-13T05:27:53.758Z,6.30
2019-05-13T05:30:32.215Z,6.40
2019-05-13T05:33:21.285Z,6.40
2019-05-13T05:36:03.688Z,6.40
2019-05-13T05:38:53.157Z,6.50
2019-05-13T05:41:24.915Z,6.40
2019-05-13T05:43:55.338Z,6.50
2019-05-13T05:46:26.397Z,6.70
2019-05-13T05:48:55.770Z,6.70
2019-05-13T05:51:25.372Z,7.00
2019-05-13T05:53:55.982Z,7.10
2019-05-13T05:56:26.430Z,7.30
2019-05-13T05:58:56.885Z,7.40
2019-05-13T06:01:25.499Z,7.70
2019-05-13T06:03:56.606Z,7.80
2019-05-13T06:06:25.444Z,7.90
2019-05-13T06:08:53.962Z,8.00
2019-05-13T06:11:24.124Z,7.80
2019-05-13T06:13:54.641Z,7.90
2019-05-13T06:16:23.357Z,8.30
2019-05-13T06:18:52.333Z,8.30
2019-05-13T06:21:21.618Z,8.30
2019-05-13T06:23:51.872Z,8.70
2019-05-13T06:26:23.595Z,9.10
2019-05-13T06:28:52.097Z,9.40
2019-05-13T06:31:21.556Z,9.20
2019-05-13T06:33:51.424Z,9.20
2019-05-13T06:36:22.106Z,9.40
2019-05-13T06:38:51.308Z,9.80
2019-05-13T06:41:21.870Z,10.30
2019-05-13T06:43:52.255Z,10.30
2019-05-13T06:46:21.856Z,10.60
2019-05-13T06:48:52.064Z,10.50
2019-05-13T06:51:22.206Z,10.60
2019-05-13T06:53:51.771Z,11.00
2019-05-13T06:56:21.822Z,11.10
2019-05-13T06:58:51.983Z,11.10
2019-05-13T07:01:21.714Z,10.90
2019-05-13T07:03:51.783Z,10.80
2019-05-13T07:06:21.705Z,10.60
2019-05-13T07:08:52.160Z,10.60
2019-05-13T07:11:22.356Z,10.70
2019-05-13T07:13:51.653Z,11.30
2019-05-13T07:16:22.384Z,11.70
2019-05-13T07:18:52.305Z,11.40
2019-05-13T07:21:21.735Z,11.20
2019-05-13T07:23:54.182Z,11.00
2019-05-13T07:26:22.133Z,10.80
2019-05-13T07:28:52.993Z,11.00
2019-05-13T07:31:21.917Z,11.60
2019-05-13T07:33:51.700Z,11.60
2019-05-13T07:36:22.611Z,11.90
2019-05-13T07:38:52.152Z,12.30
2019-05-13T07:41:33.106Z,12.40
2019-05-13T07:43:51.692Z,12.50
2019-05-13T07:46:21.786Z,12.60
2019-05-13T07:48:52.092Z,12.40
2019-05-13T07:51:22.155Z,12.60
2019-05-13T07:53:51.764Z,12.70
2019-05-13T07:56:21.895Z,12.40
2019-05-13T07:58:52.362Z,12.60
2019-05-13T08:01:22.101Z,13.20
2019-05-13T08:03:51.609Z,13.50
2019-05-13T08:06:21.957Z,13.50
2019-05-13T08:08:52.266Z,13.50
2019-05-13T08:11:22.368Z,13.10
2019-05-13T08:13:51.820Z,13.10
2019-05-13T08:16:22.354Z,13.50
2019-05-13T08:18:52.390Z,14.20
2019-05-13T08:21:21.596Z,14.50
2019-05-13T08:23:52.363Z,14.80
2019-05-13T08:26:21.727Z,15.10
2019-05-13T08:28:57.974Z,15.20
2019-05-13T08:31:21.668Z,14.60
2019-05-13T08:33:51.873Z,14.10
2019-05-13T08:36:23.267Z,13.50
2019-05-13T08:38:51.848Z,13.80
2019-05-13T08:41:23.372Z,13.40
2019-05-13T08:43:52.424Z,13.80
2019-05-13T08:46:21.852Z,13.90
2019-05-13T08:48:51.846Z,13.60
2019-05-13T08:51:22.094Z,14.50
2019-05-13T08:53:51.688Z,15.10
2019-05-13T08:56:21.741Z,15.10
2019-05-13T08:58:52.052Z,14.80
2019-05-13T09:01:22.789Z,15.00
2019-05-13T09:03:52.216Z,14.60
2019-05-13T09:06:22.111Z,14.40
2019-05-13T09:08:53.938Z,14.80
2019-05-13T09:11:22.210Z,15.60
2019-05-13T09:13:51.615Z,16.20
2019-05-13T09:16:21.475Z,15.30
2019-05-13T09:18:52.063Z,14.90
2019-05-13T09:21:22.435Z,15.20
2019-05-13T09:23:51.516Z,14.90
2019-05-13T09:26:22.526Z,14.00
2019-05-13T09:28:52.154Z,14.30
2019-05-13T09:31:22.099Z,13.60
2019-05-13T09:33:52.066Z,13.70
2019-05-13T09:36:21.788Z,13.70
2019-05-13T09:38:52.530Z,14.50
2019-05-13T09:41:21.469Z,14.00
2019-05-13T09:43:51.417Z,14.20
2019-05-13T09:46:22.356Z,15.40
2019-05-13T09:48:51.640Z,15.40
2019-05-13T09:51:21.629Z,15.10
2019-05-13T09:53:51.943Z,15.40
2019-05-13T09:56:22.396Z,15.70
2019-05-13T09:58:51.372Z,16.70
2019-05-13T10:01:22.387Z,16.50
2019-05-13T10:03:54.911Z,15.30
2019-05-13T10:06:22.236Z,14.40
2019-05-13T10:08:52.627Z,14.00
2019-05-13T10:11:21.788Z,14.20
2019-05-13T10:13:51.576Z,14.90
2019-05-13T10:16:22.101Z,14.50
2019-05-13T10:18:52.455Z,14.40
2019-05-13T10:21:21.864Z,14.50
2019-05-13T10:23:51.301Z,14.20
2019-05-13T10:26:22.531Z,13.90
2019-05-13T10:28:50.708Z,13.40
2019-05-13T10:31:19.199Z,13.50
2019-05-13T10:33:47.806Z,13.50
2019-05-13T10:36:16.759Z,14.70
2019-05-13T10:38:45.272Z,14.80
2019-05-13T10:41:13.763Z,14.40
2019-05-13T10:43:44.236Z,14.50
2019-05-13T10:46:12.981Z,14.00
2019-05-13T10:48:41.804Z,13.80
2019-05-13T10:51:12.899Z,14.00
2019-05-13T10:53:42.675Z,13.30
2019-05-13T10:56:10.790Z,13.80
2019-05-13T10:58:42.536Z,15.10
2019-05-13T11:01:11.650Z,15.40
2019-05-13T11:03:42.790Z,15.60
2019-05-13T11:06:11.689Z,15.80
2019-05-13T11:08:42.204Z,15.60
2019-05-13T11:11:13.104Z,16.30
2019-05-13T11:13:52.153Z,15.70
2019-05-13T11:16:12.244Z,16.10
2019-05-13T11:18:40.911Z,16.90
2019-05-13T11:21:12.248Z,15.60
2019-05-13T11:23:39.507Z,14.50
2019-05-13T11:26:07.938Z,14.10
2019-05-13T11:28:36.635Z,14.10
2019-05-13T11:31:05.159Z,14.90
2019-05-13T11:33:33.590Z,15.60
2019-05-13T11:36:03.383Z,16.10
2019-05-13T11:38:32.887Z,16.50
2019-05-13T11:41:02.535Z,16.40
2019-05-13T11:43:33.158Z,17.10
2019-05-13T11:46:02.316Z,16.50
2019-05-13T11:48:32.319Z,15.80
2019-05-13T11:51:03.996Z,15.30
2019-05-13T11:53:33.827Z,15.10
2019-05-13T11:56:03.563Z,14.90
2019-05-13T11:58:32.602Z,15.70
2019-05-13T12:01:02.583Z,15.40
2019-05-13T12:03:32.487Z,14.70
2019-05-13T12:06:02.283Z,14.60
2019-05-13T12:08:33.952Z,14.40
2019-05-13T12:11:04.148Z,14.70
2019-05-13T12:13:32.797Z,15.80
2019-05-13T12:16:03.569Z,16.80
2019-05-13T12:18:31.692Z,15.90
2019-05-13T12:21:03.537Z,15.30
2019-05-13T12:23:30.504Z,14.80
2019-05-13T12:25:59.036Z,14.60
2019-05-13T12:28:28.555Z,15.50
2019-05-13T12:30:57.008Z,15.70
2019-05-13T12:33:25.456Z,16.30
2019-05-13T12:35:54.019Z,16.10
2019-05-13T12:38:22.997Z,15.50
2019-05-13T12:40:53.295Z,15.30
2019-05-13T12:43:23.859Z,15.10
2019-05-13T12:45:53.371Z,15.60
2019-05-13T12:48:23.117Z,15.70
2019-05-13T12:50:54.105Z,16.40
2019-05-13T12:53:22.379Z,16.00
2019-05-13T12:55:53.815Z,15.70
2019-05-13T12:58:23.593Z,15.70
2019-05-13T13:00:53.226Z,16.20
2019-05-13T13:03:23.310Z,16.00
2019-05-13T13:05:52.158Z,15.60
2019-05-13T13:08:38.602Z,15.70
2019-05-13T13:10:53.307Z,16.00
2019-05-13T13:13:23.155Z,15.50
2019-05-13T13:15:53.145Z,15.70
2019-05-13T13:18:22.439Z,16.80
2019-05-13T13:21:00.180Z,16.90
2019-05-13T13:23:23.884Z,17.30
2019-05-13T13:25:56.749Z,17.00
2019-05-13T13:28:24.029Z,16.10
2019-05-13T13:30:53.272Z,15.70
2019-05-13T13:33:22.297Z,16.30
2019-05-13T13:35:59.535Z,16.60
2019-05-13T13:38:25.209Z,16.10
2019-05-13T13:40:53.865Z,16.20
2019-05-13T13:43:24.711Z,16.90
2019-05-13T13:46:07.724Z,16.90
2019-05-13T13:48:25.719Z,16.90
2019-05-13T13:50:56.002Z,17.30
2019-05-13T13:53:26.100Z,17.20
2019-05-13T13:55:55.957Z,17.10
2019-05-13T13:58:25.519Z,17.00
2019-05-13T14:01:05.927Z,17.10
2019-05-13T14:03:22.766Z,17.20
2019-05-13T14:05:53.566Z,16.90
2019-05-13T14:08:21.698Z,17.20
2019-05-13T14:10:51.493Z,16.90
2019-05-13T14:13:21.834Z,16.00
2019-05-13T14:15:52.712Z,16.00
2019-05-13T14:18:26.365Z,15.60
2019-05-13T14:20:52.938Z,16.00
2019-05-13T14:23:21.471Z,16.60
2019-05-13T14:25:52.076Z,16.40
2019-05-13T14:28:22.964Z,16.60
2019-05-13T14:30:51.425Z,17.10
2019-05-13T14:33:20.180Z,16.40
2019-05-13T14:35:48.621Z,15.70
2019-05-13T14:38:17.043Z,15.80
2019-05-13T14:40:45.707Z,15.80
2019-05-13T14:43:14.288Z,16.20
2019-05-13T14:45:42.818Z,16.40
2019-05-13T14:48:12.621Z,16.40
2019-05-13T14:50:41.766Z,16.10
2019-05-13T14:53:10.546Z,16.40
2019-05-13T14:55:41.757Z,16.30
2019-05-13T14:58:09.155Z,15.70
2019-05-13T15:00:37.644Z,15.20
2019-05-13T15:03:06.098Z,15.10
2019-05-13T15:05:34.523Z,15.30
2019-05-13T15:08:02.972Z,15.70
2019-05-13T15:10:31.572Z,15.40
2019-05-13T15:13:03.075Z,15.70
2019-05-13T15:15:31.682Z,15.70
2019-05-13T15:18:01.432Z,15.50
2019-05-13T15:20:32.891Z,15.30
2019-05-13T15:23:00.243Z,15.10
2019-05-13T15:25:28.760Z,15.00
2019-05-13T15:27:59.496Z,14.60
2019-05-13T15:30:27.916Z,14.70
2019-05-13T15:32:56.359Z,14.40
2019-05-13T15:35:24.783Z,14.50
2019-05-13T15:37:53.322Z,14.00
2019-05-13T15:40:22.105Z,13.80
2019-05-13T15:42:51.753Z,13.70
2019-05-13T15:45:21.337Z,13.70
2019-05-13T15:47:51.670Z,13.70
2019-05-13T15:50:21.442Z,13.90
2019-05-13T15:52:51.681Z,13.80
2019-05-13T15:55:21.371Z,13.70
2019-05-13T15:57:51.822Z,13.70
2019-05-13T16:00:21.983Z,13.50
2019-05-13T16:02:52.261Z,13.50
2019-05-13T16:05:20.895Z,13.50
2019-05-13T16:07:51.630Z,13.30
2019-05-13T16:10:19.614Z,13.30
2019-05-13T16:12:48.118Z,13.30
2019-05-13T16:15:16.815Z,13.40
2019-05-13T16:17:45.262Z,13.30
2019-05-13T16:20:13.967Z,13.10
2019-05-13T16:22:42.475Z,13.10
2019-05-13T16:25:11.746Z,13.10
2019-05-13T16:27:41.670Z,13.00
2019-05-13T16:30:11.979Z,12.80
2019-05-13T16:32:42.511Z,12.60
2019-05-13T16:35:13.389Z,12.70
2019-05-13T16:37:41.888Z,12.60
2019-05-13T16:40:11.836Z,12.50
2019-05-13T16:42:42.253Z,12.50
2019-05-13T16:45:12.489Z,12.50
2019-05-13T16:47:55.762Z,12.50
2019-05-13T16:50:11.951Z,12.50
2019-05-13T16:52:41.824Z,12.50
2019-05-13T16:55:12.787Z,12.60
2019-05-13T16:57:42.310Z,12.60
2019-05-13T17:00:14.395Z,12.70
2019-05-13T17:02:42.891Z,12.80
2019-05-13T17:05:12.217Z,12.80
2019-05-13T17:07:42.246Z,12.90
2019-05-13T17:10:12.439Z,12.80
2019-05-13T17:12:43.013Z,12.90
2019-05-13T17:15:11.875Z,12.90
2019-05-13T17:17:41.050Z,13.00
2019-05-13T17:20:12.476Z,12.90
2019-05-13T17:22:42.332Z,12.80
2019-05-13T17:25:12.600Z,12.80
2019-05-13T17:27:40.804Z,12.70
2019-05-13T17:30:11.618Z,12.50
2019-05-13T17:32:40.496Z,12.40
2019-05-13T17:35:11.444Z,12.20
2019-05-13T17:37:41.997Z,12.10
2019-05-13T17:40:11.916Z,11.90
2019-05-13T17:42:41.427Z,11.70
2019-05-13T17:45:11.297Z,11.60
2019-05-13T17:47:41.891Z,11.50
2019-05-13T17:50:11.689Z,11.40
2019-05-13T17:52:40.556Z,11.30
2019-05-13T17:55:11.526Z,11.20
2019-05-13T17:57:41.512Z,11.20
2019-05-13T18:00:10.618Z,11.20
2019-05-13T18:02:39.076Z,11.10
2019-05-13T18:05:07.916Z,11.10
2019-05-13T18:07:36.404Z,11.00
2019-05-13T18:10:06.539Z,10.90
2019-05-13T18:12:35.016Z,10.90
2019-05-13T18:15:04.679Z,10.70
2019-05-13T18:17:33.138Z,10.60
2019-05-13T18:20:02.451Z,10.60
2019-05-13T18:22:31.297Z,10.50
2019-05-13T18:25:02.360Z,10.40
2019-05-13T18:27:32.203Z,10.30
2019-05-13T18:30:02.149Z,10.20
2019-05-13T18:32:31.955Z,10.10
2019-05-13T18:35:01.713Z,9.90
2019-05-13T18:37:31.551Z,9.80
2019-05-13T18:40:02.595Z,9.60
2019-05-13T18:42:31.709Z,9.50
2019-05-13T18:45:02.208Z,9.40
2019-05-13T18:47:31.613Z,9.30
2019-05-13T18:50:02.203Z,9.20
2019-05-13T18:52:31.300Z,9.10
2019-05-13T18:55:02.062Z,9.00
2019-05-13T18:57:31.899Z,9.00
2019-05-13T19:00:02.149Z,8.90
2019-05-13T19:02:32.029Z,8.80
2019-05-13T19:05:01.489Z,8.80
2019-05-13T19:07:31.551Z,8.80
2019-05-13T19:10:02.427Z,8.70
2019-05-13T19:12:31.407Z,8.70
2019-05-13T19:15:02.265Z,8.60
2019-05-13T19:17:32.170Z,8.50
2019-05-13T19:20:00.476Z,8.40
2019-05-13T19:22:28.974Z,8.40
2019-05-13T19:24:57.425Z,8.30
2019-05-13T19:27:25.846Z,8.10
2019-05-13T19:29:54.310Z,8.00
2019-05-13T19:32:22.801Z,7.90
2019-05-13T19:34:52.796Z,7.90
2019-05-13T19:37:22.907Z,7.90
2019-05-13T19:39:51.335Z,7.80
2019-05-13T19:42:22.175Z,7.90
2019-05-13T19:44:51.180Z,8.00
2019-05-13T19:47:19.903Z,7.90
2019-05-13T19:49:48.346Z,7.80
2019-05-13T19:52:16.801Z,7.80
2019-05-13T19:54:45.257Z,7.80
2019-05-13T19:57:13.699Z,7.90
2019-05-13T19:59:42.755Z,7.90
2019-05-13T20:02:12.269Z,7.90
2019-05-13T20:04:42.439Z,7.90
2019-05-13T20:07:11.806Z,7.90
2019-05-13T20:09:42.583Z,7.90
2019-05-13T20:12:11.215Z,7.90
2019-05-13T20:14:40.213Z,8.00
2019-05-13T20:17:08.756Z,8.00
2019-05-13T20:19:48.710Z,8.00
2019-05-13T20:22:07.360Z,8.00
2019-05-13T20:24:35.788Z,8.00
2019-05-13T20:27:04.450Z,7.90
2019-05-13T20:29:32.859Z,7.90
2019-05-13T20:32:01.529Z,7.80
2019-05-13T20:34:31.776Z,7.80
2019-05-13T20:37:02.078Z,7.80
2019-05-13T20:39:32.080Z,7.80
2019-05-13T20:42:01.656Z,7.80
2019-05-13T20:44:31.286Z,7.80
2019-05-13T20:47:01.653Z,7.70
2019-05-13T20:49:31.202Z,7.70
2019-05-13T20:52:00.070Z,7.70
2019-05-13T20:54:31.321Z,7.70
2019-05-13T20:57:01.782Z,7.60
2019-05-13T20:59:31.910Z,7.70
2019-05-13T21:02:02.117Z,7.70
2019-05-13T21:04:32.033Z,7.70
2019-05-13T21:07:02.068Z,7.60
2019-05-13T21:09:31.644Z,7.60
2019-05-13T21:12:01.788Z,7.70
2019-05-13T21:14:32.048Z,7.60
2019-05-13T21:17:01.416Z,7.70
2019-05-13T21:19:39.255Z,7.60
2019-05-13T21:22:00.210Z,7.50
2019-05-13T21:24:28.672Z,7.50
2019-05-13T21:26:57.106Z,7.50
2019-05-13T21:29:26.622Z,7.50
2019-05-13T21:31:55.064Z,7.40
2019-05-13T21:34:23.503Z,7.40
2019-05-13T21:36:52.118Z,7.40
2019-05-13T21:39:21.398Z,7.30
2019-05-13T21:41:51.859Z,7.30
2019-05-13T21:44:20.199Z,7.30
2019-05-13T21:46:51.525Z,7.20
2019-05-13T21:49:21.319Z,7.10
2019-05-13T21:51:52.001Z,7.20
2019-05-13T21:54:20.152Z,7.20
2019-05-13T21:56:48.570Z,7.10
2019-05-13T21:59:17.008Z,6.90
2019-05-13T22:01:45.446Z,6.90
2019-05-13T22:04:13.881Z,6.80
2019-05-13T22:06:42.302Z,6.80
2019-05-13T22:09:12.386Z,6.60
2019-05-13T22:11:42.059Z,6.60
2019-05-13T22:14:11.333Z,6.60
2019-05-13T22:16:41.216Z,6.50
2019-05-13T22:19:12.027Z,6.40
2019-05-13T22:21:42.138Z,6.40
2019-05-13T22:24:11.915Z,6.20
2019-05-13T22:26:41.899Z,6.10
2019-05-13T22:29:10.843Z,6.10
2019-05-13T22:31:39.280Z,5.90
2019-05-13T22:34:07.699Z,5.80
2019-05-13T22:36:36.142Z,5.70
2019-05-13T22:39:06.450Z,5.60
2019-05-13T22:41:34.968Z,5.50
2019-05-13T22:44:03.622Z,5.30
2019-05-13T22:46:32.355Z,5.10
2019-05-13T22:49:01.259Z,5.00
2019-05-13T22:51:31.855Z,4.80
2019-05-13T22:53:59.926Z,4.70
2019-05-13T22:56:28.370Z,4.70
2019-05-13T22:58:56.779Z,4.50
2019-05-13T23:01:25.215Z,4.50
2019-05-13T23:03:53.706Z,4.40
2019-05-13T23:06:22.167Z,4.30
2019-05-13T23:08:50.754Z,4.30
2019-05-13T23:11:19.178Z,4.20
2019-05-13T23:13:51.210Z,4.10
2019-05-13T23:16:19.352Z,4.10
2019-05-13T23:18:47.787Z,4.00
2019-05-13T23:21:17.810Z,3.90
2019-05-13T23:23:46.241Z,3.80
2019-05-13T23:26:16.199Z,3.70
2019-05-13T23:28:44.648Z,3.60
2019-05-13T23:31:13.045Z,3.60
2019-05-13T23:33:41.776Z,3.50
2019-05-13T23:36:11.989Z,3.50
2019-05-13T23:38:41.352Z,3.40
2019-05-13T23:41:11.423Z,3.30
2019-05-13T23:43:40.259Z,3.30
2019-05-13T23:46:11.773Z,3.10
2019-05-13T23:48:41.283Z,3.10
2019-05-13T23:51:09.903Z,3.10
2019-05-13T23:53:38.349Z,3.10
2019-05-13T23:56:06.772Z,3.00
2019-05-13T23:58:35.202Z,2.90
